Time;durP1;ratioP1;P1;durP2;ratioP2;P2;SDS_P1;SDS_P2;PMS_P1;PMS_P2;Temp;Humidity;BMP_temperature;BMP_pressure;BME280_temperature;BME280_humidity;BME280_pressure;Samples;Min_cycle;Max_cycle;Signal;HPM_P1;HPM_P2
2022/05/18 00:00:55;;;;;;;5.15;3.40;;;19.90;81.70;;;;;;5037355;28;20045;-60
2022/05/18 00:03:27;;;;;;;5.70;3.50;;;19.80;81.80;;;;;;5031691;28;20497;-60
2022/05/18 00:05:53;;;;;;;4.72;3.28;;;19.70;81.90;;;;;;5031464;28;20030;-61
2022/05/18 00:08:19;;;;;;;6.22;3.00;;;19.70;82.20;;;;;;5039057;28;20066;-61
2022/05/18 00:10:48;;;;;;;4.88;3.42;;;19.60;82.40;;;;;;5034319;28;20029;-61
2022/05/18 00:13:14;;;;;;;6.53;3.47;;;19.60;82.50;;;;;;5031471;28;20087;-60
2022/05/18 00:15:40;;;;;;;4.72;2.97;;;19.50;82.60;;;;;;5031509;28;20021;-61
2022/05/18 00:18:06;;;;;;;6.28;3.05;;;19.50;82.80;;;;;;5031752;28;20022;-60
2022/05/18 00:20:33;;;;;;;8.00;2.63;;;19.40;82.90;;;;;;5031670;28;20029;-60
2022/05/18 00:23:02;;;;;;;4.43;2.63;;;19.30;83.10;;;;;;5040618;28;20037;-60
2022/05/18 00:25:30;;;;;;;3.85;2.75;;;19.30;83.40;;;;;;5036698;28;20024;-60
2022/05/18 00:27:56;;;;;;;5.20;3.00;;;19.30;83.60;;;;;;5034876;28;20116;-60
2022/05/18 00:30:23;;;;;;;5.57;3.05;;;19.20;83.70;;;;;;5045576;28;20533;-60
2022/05/18 00:32:49;;;;;;;5.60;3.75;;;19.20;83.80;;;;;;5031314;28;20060;-61
2022/05/18 00:35:16;;;;;;;4.15;2.97;;;19.20;84.00;;;;;;5032663;28;20070;-60
2022/05/18 00:37:42;;;;;;;5.78;3.25;;;19.10;84.10;;;;;;5038823;28;20498;-61
2022/05/18 00:40:09;;;;;;;5.78;3.33;;;19.10;84.30;;;;;;5032367;28;20022;-60
2022/05/18 00:42:35;;;;;;;6.07;4.10;;;19.10;84.40;;;;;;5043659;28;20506;-60
2022/05/18 00:45:01;;;;;;;6.20;3.33;;;19.00;84.60;;;;;;5032824;28;20033;-60
2022/05/18 00:47:26;;;;;;;5.88;3.53;;;19.00;84.80;;;;;;5035220;28;20366;-60
2022/05/18 00:49:58;;;;;;;4.80;2.92;;;18.90;84.90;;;;;;5032633;28;20075;-60
2022/05/18 00:52:32;;;;;;;5.25;3.13;;;18.90;85.00;;;;;;5033247;28;20045;-61
2022/05/18 00:55:00;;;;;;;5.35;3.70;;;18.90;85.20;;;;;;5035066;28;20083;-60
2022/05/18 00:57:35;;;;;;;6.57;3.50;;;18.90;85.40;;;;;;5039394;28;20489;-60
2022/05/18 01:00:08;;;;;;;4.82;3.33;;;18.90;85.50;;;;;;5033908;28;20394;-60
2022/05/18 01:02:37;;;;;;;5.93;3.88;;;18.80;85.60;;;;;;5030956;28;20026;-60
2022/05/18 01:05:07;;;;;;;5.50;3.53;;;18.80;85.80;;;;;;5048926;28;20564;-60
2022/05/18 01:07:37;;;;;;;8.27;3.45;;;18.70;85.90;;;;;;5032568;28;20017;-60
2022/05/18 01:10:05;;;;;;;4.40;3.20;;;18.70;86.10;;;;;;5031107;28;20028;-60
2022/05/18 01:12:31;;;;;;;4.57;3.05;;;18.70;86.30;;;;;;5036817;28;20017;-60
2022/05/18 01:15:02;;;;;;;7.22;4.03;;;18.60;86.40;;;;;;5049136;28;20067;-60
2022/05/18 01:17:31;;;;;;;5.38;3.60;;;18.60;86.60;;;;;;5038045;28;20053;-60
2022/05/18 01:19:58;;;;;;;;;;;18.60;86.80;;;;;;5032561;28;20036;-60
2022/05/18 01:22:47;;;;;;;4.20;2.70;;;18.50;86.70;;;;;;5034873;28;19960;-60
2022/05/18 01:25:28;;;;;;;6.82;4.25;;;18.50;87.20;;;;;;5037662;28;20551;-60
2022/05/18 01:27:56;;;;;;;7.53;4.60;;;18.30;87.90;;;;;;5032519;28;20056;-60
2022/05/18 01:30:22;;;;;;;7.97;5.50;;;18.30;88.70;;;;;;5036543;28;20029;-60
2022/05/18 01:32:53;;;;;;;6.32;5.07;;;18.10;89.30;;;;;;5044322;28;20508;-61
2022/05/18 01:35:23;;;;;;;7.63;5.00;;;18.10;89.80;;;;;;5031596;28;20396;-60
2022/05/18 01:37:49;;;;;;;6.45;4.43;;;18.00;90.00;;;;;;5037907;28;20029;-60
2022/05/18 01:40:42;;;;;;;6.97;4.43;;;18.00;90.20;;;;;;5034265;28;20021;-60
2022/05/18 01:43:20;;;;;;;6.93;3.90;;;18.00;90.20;;;;;;5044144;28;20029;-60
2022/05/18 01:45:54;;;;;;;7.00;4.00;;;18.00;90.30;;;;;;5034512;28;20025;-60
2022/05/18 01:48:23;;;;;;;4.75;3.38;;;18.00;90.30;;;;;;5042547;28;20384;-60
2022/05/18 01:50:50;;;;;;;5.78;3.75;;;18.00;90.20;;;;;;5036691;28;20040;-60
2022/05/18 01:53:17;;;;;;;6.40;3.83;;;18.00;90.20;;;;;;5037265;28;20048;-60
2022/05/18 01:55:43;;;;;;;6.28;3.80;;;18.00;90.20;;;;;;5036898;28;20102;-60
2022/05/18 01:58:12;;;;;;;7.22;3.88;;;18.10;90.20;;;;;;5038191;28;20075;-60
2022/05/18 02:00:38;;;;;;;5.25;3.60;;;18.00;90.20;;;;;;5035062;28;20101;-60
2022/05/18 02:03:04;;;;;;;5.32;3.42;;;18.00;90.30;;;;;;5032917;28;20024;-60
2022/05/18 02:05:29;;;;;;;6.63;3.85;;;18.00;90.40;;;;;;5033843;28;20514;-60
2022/05/18 02:07:57;;;;;;;4.78;4.03;;;18.00;90.40;;;;;;5037949;28;20020;-60
2022/05/18 02:10:23;;;;;;;6.45;3.95;;;17.90;90.50;;;;;;5039840;28;20043;-60
2022/05/18 02:12:50;;;;;;;4.43;3.55;;;17.90;90.70;;;;;;5039439;28;20040;-60
2022/05/18 02:15:16;;;;;;;5.60;4.10;;;17.90;90.70;;;;;;5039422;28;20025;-60
2022/05/18 02:17:43;;;;;;;4.95;3.65;;;17.90;90.80;;;;;;5036592;28;20048;-60
2022/05/18 02:20:09;;;;;;;5.68;3.60;;;17.80;90.80;;;;;;5035910;28;20026;-60
2022/05/18 02:22:35;;;;;;;6.10;4.00;;;17.80;90.80;;;;;;5036880;28;20493;-60
2022/05/18 02:25:01;;;;;;;7.50;5.57;;;17.80;90.90;;;;;;5032793;28;20102;-60
2022/05/18 02:27:28;;;;;;;8.98;6.45;;;17.80;91.20;;;;;;5033625;28;20021;-60
2022/05/18 02:29:54;;;;;;;8.00;6.13;;;17.70;91.60;;;;;;5032098;28;20017;-60
2022/05/18 02:32:19;;;;;;;9.30;6.30;;;17.50;92.10;;;;;;5035410;28;20034;-60
2022/05/18 02:34:45;;;;;;;7.47;5.55;;;17.40;92.50;;;;;;5036426;28;20152;-60
2022/05/18 02:37:10;;;;;;;5.60;4.57;;;17.30;92.70;;;;;;5033380;28;20738;-60
2022/05/18 02:39:36;;;;;;;6.15;4.07;;;17.30;92.70;;;;;;5030944;28;20040;-60
2022/05/18 02:42:01;;;;;;;5.63;3.67;;;17.30;92.60;;;;;;5043174;28;20028;-60
2022/05/18 02:44:27;;;;;;;6.70;5.05;;;17.40;92.60;;;;;;5045262;28;20061;-60
2022/05/18 02:46:57;;;;;;;7.72;6.03;;;17.30;92.60;;;;;;5036990;28;20043;-60
2022/05/18 02:49:24;;;;;;;11.20;6.15;;;17.30;92.90;;;;;;5037847;28;20499;-61
2022/05/18 02:51:51;;;;;;;8.13;5.78;;;17.20;93.20;;;;;;5036473;28;20045;-60
2022/05/18 02:57:01;;;;;;;9.27;5.63;;;17.20;93.60;;;;;;5038130;28;20037;-60
2022/05/18 02:59:27;;;;;;;9.80;6.75;;;17.10;93.90;;;;;;5036496;28;20021;-60
2022/05/18 03:01:52;;;;;;;9.88;5.90;;;17.00;94.10;;;;;;5032780;28;20055;-60
2022/05/18 03:04:18;;;;;;;7.07;5.13;;;17.00;94.10;;;;;;5033917;28;20033;-60
2022/05/18 03:06:44;;;;;;;5.55;4.28;;;17.00;94.30;;;;;;5034765;28;20020;-60
2022/05/18 03:09:10;;;;;;;6.38;4.32;;;17.00;94.20;;;;;;5033008;28;20025;-60
2022/05/18 03:11:35;;;;;;;7.75;5.72;;;17.00;94.10;;;;;;5035490;28;20021;-60
2022/05/18 03:14:01;;;;;;;7.88;6.15;;;16.90;94.20;;;;;;5035640;28;20560;-60
2022/05/18 03:16:28;;;;;;;7.63;6.05;;;16.90;94.50;;;;;;5034642;28;20024;-60
2022/05/18 03:18:54;;;;;;;9.82;6.38;;;16.80;94.70;;;;;;5038425;28;20016;-60
2022/05/18 03:24:04;;;;;;;8.73;6.80;;;16.70;95.30;;;;;;5034591;28;20035;-60
2022/05/18 03:26:30;;;;;;;8.23;6.18;;;16.70;95.60;;;;;;5042757;28;20025;-60
2022/05/18 03:28:56;;;;;;;9.57;7.03;;;16.70;95.80;;;;;;5050365;28;20022;-60
2022/05/18 03:31:23;;;;;;;7.85;5.88;;;16.70;95.90;;;;;;5032373;28;20034;-60
2022/05/18 03:33:49;;;;;;;9.13;5.93;;;16.70;96.20;;;;;;5035389;28;20079;-60
2022/05/18 03:36:16;;;;;;;8.45;6.38;;;16.60;96.20;;;;;;5043242;28;20029;-60
2022/05/18 03:38:44;;;;;;;10.90;6.57;;;16.70;96.30;;;;;;5035071;28;20048;-60
2022/05/18 03:41:10;;;;;;;9.20;6.68;;;16.60;96.30;;;;;;5032465;28;20025;-60
2022/05/18 03:43:36;;;;;;;8.43;6.60;;;16.60;96.50;;;;;;5034932;28;20029;-60
2022/05/18 03:46:02;;;;;;;9.95;6.45;;;16.60;96.60;;;;;;5029289;28;20033;-60
2022/05/18 03:48:29;;;;;;;10.25;6.40;;;16.60;96.80;;;;;;5040208;28;20021;-60
2022/05/18 03:50:56;;;;;;;9.38;6.93;;;16.60;96.90;;;;;;5035066;28;20061;-60
2022/05/18 03:53:22;;;;;;;7.68;6.72;;;16.50;97.00;;;;;;5036321;28;20108;-60
2022/05/18 03:55:48;;;;;;;9.95;7.38;;;16.50;97.00;;;;;;5033358;28;20498;-60
2022/05/18 03:58:14;;;;;;;7.88;6.43;;;16.50;97.10;;;;;;5031834;28;20029;-60
2022/05/18 04:00:42;;;;;;;9.82;7.03;;;16.50;97.20;;;;;;5030355;28;20025;-60
2022/05/18 04:03:09;;;;;;;9.82;6.70;;;16.50;97.30;;;;;;5038739;28;20021;-60
2022/05/18 04:05:37;;;;;;;10.23;6.93;;;16.50;97.30;;;;;;5031772;28;20031;-60
2022/05/18 04:08:02;;;;;;;7.57;6.10;;;16.50;97.40;;;;;;5037245;28;20025;-60
2022/05/18 04:10:28;;;;;;;7.20;6.00;;;16.50;97.40;;;;;;5031410;28;20032;-60
2022/05/18 04:12:54;;;;;;;8.00;5.93;;;16.50;97.40;;;;;;5035147;28;20021;-60
2022/05/18 04:15:19;;;;;;;8.55;6.15;;;16.50;97.50;;;;;;5031733;28;20100;-60
2022/05/18 04:17:46;;;;;;;8.93;7.32;;;16.50;97.50;;;;;;5031823;28;20017;-60
2022/05/18 04:20:19;;;;;;;8.60;7.00;;;16.60;97.70;;;;;;5043990;28;20033;-60
2022/05/18 04:22:45;;;;;;;9.68;6.70;;;16.60;97.70;;;;;;5039690;28;20510;-60
2022/05/18 04:25:15;;;;;;;7.55;6.68;;;16.60;97.70;;;;;;5027409;28;20419;-60
2022/05/18 04:27:41;;;;;;;7.80;6.07;;;16.60;97.60;;;;;;5034362;28;20088;-60
2022/05/18 04:30:08;;;;;;;8.95;6.78;;;16.60;97.60;;;;;;5032953;28;20048;-60
2022/05/18 04:32:33;;;;;;;9.70;6.85;;;16.70;97.60;;;;;;5046553;28;20072;-60
2022/05/18 04:34:59;;;;;;;11.07;7.53;;;16.70;97.70;;;;;;5038271;28;20033;-60
2022/05/18 04:37:24;;;;;;;10.23;6.38;;;16.60;97.70;;;;;;5034268;28;20032;-60
2022/05/18 04:39:50;;;;;;;9.82;7.68;;;16.70;97.80;;;;;;5034115;28;20072;-60
2022/05/18 04:42:16;;;;;;;8.63;7.40;;;16.70;97.70;;;;;;5028370;28;20125;-60
2022/05/18 04:44:42;;;;;;;8.48;7.53;;;16.70;97.70;;;;;;5032769;28;20025;-60
2022/05/18 04:47:07;;;;;;;9.73;7.55;;;16.70;97.70;;;;;;5032716;28;20092;-60
2022/05/18 04:49:33;;;;;;;8.75;7.25;;;16.70;97.60;;;;;;5031356;28;20503;-60
2022/05/18 04:52:01;;;;;;;9.57;6.63;;;16.70;97.50;;;;;;5039259;28;20107;-60
2022/05/18 04:54:26;;;;;;;10.35;7.75;;;16.80;97.60;;;;;;5031836;28;20025;-60
2022/05/18 04:56:52;;;;;;;10.50;7.72;;;16.80;97.50;;;;;;5037911;28;20056;-60
2022/05/18 04:59:17;;;;;;;10.55;7.45;;;16.80;97.40;;;;;;5032687;28;20519;-60
2022/05/18 05:01:43;;;;;;;10.52;7.80;;;16.90;97.30;;;;;;5035616;28;20445;-60
2022/05/18 05:04:09;;;;;;;9.95;7.43;;;16.90;97.30;;;;;;5035113;28;20040;-60
2022/05/18 05:06:39;;;;;;;8.88;6.82;;;17.00;97.20;;;;;;5032136;28;20075;-60
2022/05/18 05:09:04;;;;;;;9.55;8.05;;;17.00;97.10;;;;;;5039006;28;20394;-59
2022/05/18 05:11:30;;;;;;;12.05;8.40;;;17.00;96.90;;;;;;5050621;28;20481;-60
2022/05/18 05:13:56;;;;;;;9.15;8.25;;;17.10;96.80;;;;;;5034187;28;20393;-60
2022/05/18 05:16:21;;;;;;;10.85;7.93;;;17.20;96.70;;;;;;5036062;28;20057;-60
2022/05/18 05:18:47;;;;;;;8.38;7.55;;;17.30;96.60;;;;;;5035875;28;20473;-60
2022/05/18 05:21:12;;;;;;;10.35;9.07;;;17.30;96.60;;;;;;5036072;28;20036;-60
2022/05/18 05:23:38;;;;;;;11.80;9.10;;;17.40;96.50;;;;;;5036285;28;20034;-60
2022/05/18 05:26:04;;;;;;;12.45;9.55;;;17.50;96.20;;;;;;5051050;28;20481;-60
2022/05/18 05:28:29;;;;;;;10.75;9.65;;;17.50;96.30;;;;;;5051359;28;20160;-60
2022/05/18 05:31:00;;;;;;;13.45;8.95;;;17.60;96.10;;;;;;5051163;28;20044;-60
2022/05/18 05:33:25;;;;;;;10.45;9.45;;;17.70;95.70;;;;;;5035929;28;20026;-61
2022/05/18 05:35:50;;;;;;;12.43;10.50;;;17.80;95.50;;;;;;5054291;28;20036;-60
2022/05/18 05:38:16;;;;;;;12.85;10.65;;;17.90;95.20;;;;;;5055721;28;20029;-60
2022/05/18 05:40:42;;;;;;;12.95;10.07;;;17.90;95.10;;;;;;5055474;28;20115;-60
2022/05/18 05:43:11;;;;;;;14.45;9.88;;;18.10;95.10;;;;;;5055701;28;20039;-60
2022/05/18 05:45:37;;;;;;;;;;;18.20;95.00;;;;;;5055901;28;20029;-60
2022/05/18 05:48:04;;;;;;;13.95;10.82;;;18.30;94.80;;;;;;5055454;28;20665;-60
2022/05/18 05:50:30;;;;;;;12.55;11.25;;;18.40;94.40;;;;;;5055336;28;20494;-60
2022/05/18 05:52:57;;;;;;;12.95;10.65;;;18.40;94.20;;;;;;5055289;28;20104;-60
2022/05/18 05:55:23;;;;;;;12.25;10.90;;;18.60;94.10;;;;;;5055258;28;20036;-60
2022/05/18 05:57:48;;;;;;;16.10;10.60;;;18.60;93.90;;;;;;5055218;28;20041;-60
2022/05/18 06:00:14;;;;;;;10.98;9.85;;;18.70;93.90;;;;;;5055334;28;20025;-60
2022/05/18 06:02:40;;;;;;;12.38;11.07;;;18.70;94.10;;;;;;5055187;28;20043;-60
2022/05/18 06:05:06;;;;;;;11.57;9.77;;;18.90;93.90;;;;;;5055158;28;20464;-60
2022/05/18 06:07:32;;;;;;;12.32;10.55;;;19.00;93.80;;;;;;5053651;28;20469;-60
2022/05/18 06:09:57;;;;;;;15.10;11.77;;;19.10;94.00;;;;;;5043266;28;20045;-60
2022/05/18 06:12:28;;;;;;;13.63;12.10;;;19.10;93.40;;;;;;5043052;28;20029;-60
2022/05/18 06:14:53;;;;;;;13.25;11.80;;;19.30;93.20;;;;;;5035049;28;20044;-60
2022/05/18 06:17:19;;;;;;;12.55;11.35;;;19.30;92.90;;;;;;5036763;28;20474;-60
2022/05/18 06:19:45;;;;;;;14.02;12.50;;;19.40;92.90;;;;;;5053115;28;20025;-60
2022/05/18 06:22:10;;;;;;;16.17;11.43;;;19.50;93.10;;;;;;5054747;28;20074;-60
2022/05/18 06:24:36;;;;;;;14.98;12.60;;;19.60;92.60;;;;;;5054725;28;20024;-61
2022/05/18 06:27:03;;;;;;;13.77;11.30;;;19.70;92.60;;;;;;5054670;28;20473;-60
2022/05/18 06:29:29;;;;;;;11.95;10.77;;;19.80;92.00;;;;;;5054747;28;20028;-60
2022/05/18 06:31:56;;;;;;;12.05;10.00;;;19.90;91.80;;;;;;5054728;28;20100;-60
2022/05/18 06:34:22;;;;;;;12.48;10.02;;;19.90;91.80;;;;;;5054751;28;20025;-60
2022/05/18 06:36:49;;;;;;;13.07;10.55;;;20.00;91.60;;;;;;5053076;28;20431;-60
2022/05/18 06:39:18;;;;;;;10.07;9.05;;;20.10;91.80;;;;;;5054605;28;20496;-60
2022/05/18 06:41:44;;;;;;;10.57;8.63;;;20.10;91.60;;;;;;5054443;28;20362;-60
2022/05/18 06:44:10;;;;;;;8.57;7.53;;;20.20;91.10;;;;;;5049912;28;20029;-60
2022/05/18 06:46:36;;;;;;;10.60;8.00;;;20.30;90.50;;;;;;5051059;28;20098;-60
2022/05/18 06:49:04;;;;;;;8.20;7.13;;;20.40;89.90;;;;;;5051914;28;20047;-60
2022/05/18 06:51:34;;;;;;;14.07;7.63;;;20.50;89.30;;;;;;5054104;28;20120;-60
2022/05/18 06:53:59;;;;;;;9.40;7.38;;;20.60;89.10;;;;;;5054059;28;20477;-60
2022/05/18 06:56:34;;;;;;;8.93;7.47;;;20.70;88.90;;;;;;5053440;28;20039;-60
2022/05/18 06:59:00;;;;;;;9.20;6.50;;;20.70;87.00;;;;;;5052898;28;20092;-61
2022/05/18 07:01:28;;;;;;;8.77;6.72;;;20.80;86.60;;;;;;5052806;28;20024;-60
2022/05/18 07:03:54;;;;;;;7.72;6.72;;;20.90;86.60;;;;;;5053124;28;20112;-60
2022/05/18 07:06:23;;;;;;;8.43;6.00;;;20.90;85.90;;;;;;5053906;28;20036;-60
2022/05/18 07:08:54;;;;;;;7.75;6.32;;;21.00;85.20;;;;;;5053898;28;20216;-60
2022/05/18 07:11:20;;;;;;;10.60;7.38;;;21.10;84.40;;;;;;5053910;28;20021;-61
2022/05/18 07:13:51;;;;;;;8.52;6.10;;;21.10;82.80;;;;;;5053624;28;20489;-60
2022/05/18 07:16:18;;;;;;;9.23;6.15;;;21.20;82.50;;;;;;5053666;28;20024;-60
2022/05/18 07:18:44;;;;;;;10.43;6.60;;;21.20;81.60;;;;;;5053226;28;20025;-60
2022/05/18 07:21:10;;;;;;;6.75;5.00;;;21.30;81.20;;;;;;5053972;28;20387;-60
2022/05/18 07:23:36;;;;;;;13.75;7.38;;;21.40;81.40;;;;;;5053510;28;20028;-60
2022/05/18 07:26:02;;;;;;;9.43;7.65;;;21.40;81.10;;;;;;5053435;28;20428;-60
2022/05/18 07:28:28;;;;;;;9.35;6.38;;;21.40;80.80;;;;;;5053393;28;20493;-60
2022/05/18 07:30:54;;;;;;;10.57;7.95;;;21.50;80.90;;;;;;5053427;28;20029;-60
2022/05/18 07:33:20;;;;;;;8.20;6.90;;;21.50;80.50;;;;;;5052233;28;20025;-60
2022/05/18 07:35:46;;;;;;;9.35;6.03;;;21.50;80.60;;;;;;5053172;28;20025;-61
2022/05/18 07:38:12;;;;;;;9.15;5.50;;;21.40;80.70;;;;;;5053257;28;20035;-60
2022/05/18 07:40:38;;;;;;;5.95;5.20;;;21.50;80.90;;;;;;5053251;28;20025;-60
2022/05/18 07:43:04;;;;;;;8.55;5.18;;;21.50;81.00;;;;;;5053093;28;20029;-60
2022/05/18 07:45:29;;;;;;;10.25;6.53;;;21.50;81.00;;;;;;5053227;28;20033;-60
2022/05/18 07:47:55;;;;;;;8.02;6.55;;;21.60;81.20;;;;;;5053024;28;20021;-60
2022/05/18 07:50:22;;;;;;;8.35;6.10;;;21.60;81.10;;;;;;5053023;28;20029;-60
2022/05/18 07:52:49;;;;;;;10.15;6.22;;;21.70;80.90;;;;;;5053093;28;20028;-60
2022/05/18 07:55:15;;;;;;;7.47;5.70;;;21.80;81.20;;;;;;5051812;28;20025;-60
2022/05/18 07:57:41;;;;;;;7.60;5.55;;;21.90;81.30;;;;;;5052922;28;20049;-61
2022/05/18 08:00:08;;;;;;;7.82;6.40;;;22.00;81.40;;;;;;5052941;28;20039;-60
2022/05/18 08:02:34;;;;;;;9.15;6.50;;;22.00;81.00;;;;;;5052901;28;20040;-61
2022/05/18 08:05:00;;;;;;;8.15;6.35;;;22.10;81.10;;;;;;5052821;28;20488;-60
2022/05/18 08:07:26;;;;;;;7.93;7.10;;;22.20;81.30;;;;;;5052762;28;20025;-60
2022/05/18 08:15:21;;;;;;;10.18;6.70;;;22.40;80.90;;;;;;5052325;28;20027;-60
2022/05/18 08:17:47;;;;;;;9.98;7.47;;;22.50;80.70;;;;;;5051259;28;20390;-60
2022/05/18 08:20:16;;;;;;;9.05;6.35;;;22.60;80.60;;;;;;5052633;28;20027;-60
2022/05/18 08:22:41;;;;;;;8.57;6.55;;;22.70;80.70;;;;;;5052444;28;20029;-60
2022/05/18 08:25:09;;;;;;;8.05;7.20;;;22.80;80.40;;;;;;5051743;28;20029;-60
2022/05/18 08:27:39;;;;;;;9.60;6.50;;;22.90;79.90;;;;;;5050616;28;20107;-60
2022/05/18 08:30:06;;;;;;;8.40;6.03;;;23.00;79.70;;;;;;5051620;28;20052;-61
2022/05/18 08:32:32;;;;;;;9.48;6.88;;;23.10;79.50;;;;;;5040316;28;20041;-60
2022/05/18 08:34:58;;;;;;;8.00;5.90;;;23.10;79.10;;;;;;5033248;28;20031;-60
2022/05/18 08:37:24;;;;;;;9.02;5.90;;;23.20;78.90;;;;;;5052336;28;20480;-60
2022/05/18 08:39:50;;;;;;;9.13;7.05;;;23.30;78.90;;;;;;5052067;28;20033;-60
2022/05/18 08:42:17;;;;;;;7.07;5.95;;;23.30;78.60;;;;;;5050868;28;20409;-61
2022/05/18 08:44:43;;;;;;;9.40;7.15;;;23.40;78.80;;;;;;5051959;28;20025;-60
2022/05/18 08:47:19;;;;;;;12.40;6.90;;;23.50;78.40;;;;;;5052206;28;20036;-60
2022/05/18 08:50:07;;;;;;;6.70;5.90;;;23.50;78.00;;;;;;5051986;28;20029;-61
2022/05/18 08:52:39;;;;;;;7.20;6.28;;;23.60;78.00;;;;;;5051151;28;20060;-61
2022/05/18 08:55:37;;;;;;;8.35;6.47;;;23.80;77.90;;;;;;5044945;28;20032;-61
2022/05/18 08:58:08;;;;;;;8.50;6.53;;;23.90;77.60;;;;;;5058524;28;20029;-60
2022/05/18 09:00:38;;;;;;;9.38;7.70;;;24.00;77.60;;;;;;5050074;28;20048;-60
2022/05/18 09:03:15;;;;;;;9.63;8.20;;;24.10;77.40;;;;;;5042705;28;20021;-60
2022/05/18 09:05:58;;;;;;;8.32;7.22;;;24.30;77.00;;;;;;5047815;28;20025;-60
2022/05/18 09:08:31;;;;;;;9.75;7.55;;;24.40;77.40;;;;;;5047594;28;20017;-61
2022/05/18 09:11:12;;;;;;;7.53;6.70;;;24.40;77.10;;;;;;5044560;28;20108;-60
2022/05/18 09:13:38;;;;;;;11.77;7.88;;;24.60;76.90;;;;;;5047408;28;20017;-61
2022/05/18 09:16:16;;;;;;;9.07;7.93;;;24.60;76.60;;;;;;5047480;28;20044;-60
2022/05/18 09:19:29;;;;;;;10.65;7.30;;;24.70;76.40;;;;;;5047515;28;20075;-60
2022/05/18 09:22:08;;;;;;;9.10;7.50;;;24.70;76.30;;;;;;5046957;28;20033;-61
2022/05/18 09:25:05;;;;;;;9.27;7.00;;;24.80;76.40;;;;;;5051310;28;20029;-61
2022/05/18 09:27:37;;;;;;;9.20;7.22;;;24.80;75.90;;;;;;5051966;28;20388;-60
2022/05/18 09:30:20;;;;;;;11.00;9.25;;;24.80;76.20;;;;;;5051750;28;20137;-60
2022/05/18 09:32:59;;;;;;;11.00;7.78;;;24.80;75.70;;;;;;5051916;28;20029;-61
2022/05/18 09:35:52;;;;;;;6.82;5.68;;;24.80;75.30;;;;;;5051408;28;20033;-61
2022/05/18 09:38:29;;;;;;;7.05;6.30;;;24.90;74.90;;;;;;5052036;28;20108;-61
2022/05/18 09:40:55;;;;;;;7.63;6.20;;;24.90;75.00;;;;;;5052040;28;20573;-60
2022/05/18 09:43:40;;;;;;;7.80;6.40;;;25.00;74.90;;;;;;5047932;28;20035;-61
2022/05/18 09:46:10;;;;;;;9.90;5.97;;;25.10;74.10;;;;;;5055078;28;20029;-61
2022/05/18 09:49:04;;;;;;;7.07;5.93;;;25.30;73.60;;;;;;5047001;28;20543;-61
2022/05/18 09:51:30;;;;;;;6.55;5.85;;;25.40;73.50;;;;;;5048783;28;20048;-60
2022/05/18 09:53:59;;;;;;;6.88;5.78;;;25.40;73.60;;;;;;5044738;28;20039;-61
2022/05/18 09:56:30;;;;;;;7.47;5.57;;;25.60;73.60;;;;;;5054623;28;20049;-61
2022/05/18 09:59:01;;;;;;;7.15;5.25;;;25.70;73.30;;;;;;5053503;28;20047;-61
2022/05/18 10:10:27;;;;;;;8.90;5.78;;;26.20;72.50;;;;;;5054604;28;20477;-60
2022/05/18 10:12:58;;;;;;;9.40;4.70;;;26.30;71.80;;;;;;5054774;28;20025;-61
2022/05/18 10:15:24;;;;;;;4.72;3.67;;;26.30;71.40;;;;;;5054074;28;20104;-60
2022/05/18 10:17:59;;;;;;;6.20;4.40;;;26.40;71.20;;;;;;5054227;28;20568;-61
2022/05/18 10:20:32;;;;;;;5.25;4.03;;;26.50;70.10;;;;;;5052827;28;20087;-61
2022/05/18 10:22:59;;;;;;;4.93;3.85;;;26.60;69.20;;;;;;5053343;28;20067;-61
2022/05/18 10:25:36;;;;;;;5.35;3.33;;;26.70;69.00;;;;;;5054126;28;20029;-61
2022/05/18 10:28:13;;;;;;;4.30;3.88;;;26.70;68.80;;;;;;5054471;28;20477;-61
2022/05/18 10:30:54;;;;;;;4.85;2.75;;;26.80;68.30;;;;;;5054492;28;20025;-61
2022/05/18 10:33:40;;;;;;;5.75;4.05;;;26.90;68.00;;;;;;5053311;28;20100;-61
2022/05/18 10:36:15;;;;;;;4.55;3.00;;;26.90;67.50;;;;;;5054258;28;20029;-61
2022/05/18 10:38:53;;;;;;;3.47;2.40;;;26.90;67.40;;;;;;5054241;28;20040;-61
2022/05/18 10:41:24;;;;;;;5.35;3.10;;;27.00;67.20;;;;;;5054599;28;20028;-61
2022/05/18 10:44:12;;;;;;;4.38;2.63;;;27.10;66.60;;;;;;5054216;28;20496;-61
2022/05/18 10:46:44;;;;;;;3.90;2.85;;;27.20;66.40;;;;;;5053761;28;20566;-61
2022/05/18 10:49:36;;;;;;;4.00;2.78;;;27.30;66.40;;;;;;5052737;28;20025;-61
2022/05/18 10:52:18;;;;;;;4.00;2.92;;;27.40;66.00;;;;;;5043528;28;20042;-61
2022/05/18 10:54:59;;;;;;;3.17;2.10;;;27.50;66.60;;;;;;5050640;28;20020;-60
2022/05/18 10:57:30;;;;;;;4.28;2.00;;;27.70;66.50;;;;;;5051461;28;20090;-61
2022/05/18 11:00:05;;;;;;;2.97;2.00;;;27.80;65.10;;;;;;5049526;28;20021;-61
2022/05/18 11:02:56;;;;;;;3.78;2.63;;;27.90;64.70;;;;;;5046389;28;20061;-61
2022/05/18 11:05:40;;;;;;;2.70;1.85;;;28.00;64.20;;;;;;5036081;28;20104;-61
2022/05/18 11:08:11;;;;;;;3.20;2.28;;;28.10;64.20;;;;;;5051564;28;20020;-61
2022/05/18 11:10:48;;;;;;;4.15;2.60;;;28.20;63.80;;;;;;5052619;28;20068;-61
2022/05/18 11:13:39;;;;;;;4.63;2.60;;;28.40;63.50;;;;;;5049582;28;20009;-61
2022/05/18 11:16:17;;;;;;;4.78;2.88;;;28.50;63.10;;;;;;5044775;28;20113;-61
2022/05/18 11:18:54;;;;;;;4.10;2.70;;;28.50;62.50;;;;;;5050580;28;20020;-61
2022/05/18 11:21:37;;;;;;;3.28;2.47;;;28.40;62.00;;;;;;5048892;28;20021;-61
2022/05/18 11:24:16;;;;;;;2.63;2.28;;;28.50;61.80;;;;;;5049809;28;20021;-61
2022/05/18 11:27:01;;;;;;;4.55;3.33;;;28.70;61.80;;;;;;5053268;28;20032;-61
2022/05/18 11:29:56;;;;;;;4.00;2.85;;;28.80;61.40;;;;;;5053350;28;20033;-61
2022/05/18 11:32:44;;;;;;;4.63;2.70;;;28.90;60.80;;;;;;5042620;28;20025;-61
2022/05/18 11:35:26;;;;;;;4.25;3.20;;;28.90;60.20;;;;;;5047642;28;20025;-61
2022/05/18 11:38:26;;;;;;;3.78;2.10;;;29.00;60.30;;;;;;5044378;28;20021;-61
2022/05/18 11:41:13;;;;;;;4.30;2.42;;;29.10;60.20;;;;;;5052028;28;20071;-61
2022/05/18 11:44:00;;;;;;;4.55;1.85;;;29.20;59.30;;;;;;5052482;28;20037;-61
2022/05/18 11:46:31;;;;;;;2.58;1.50;;;29.40;58.80;;;;;;5052862;28;20032;-61
2022/05/18 11:49:00;;;;;;;3.75;1.75;;;29.50;58.50;;;;;;5053011;28;20021;-61
2022/05/18 11:51:40;;;;;;;4.38;1.77;;;29.60;58.20;;;;;;5052674;28;20045;-61
2022/05/18 11:54:28;;;;;;;3.90;1.70;;;29.70;57.70;;;;;;5053020;28;20017;-60
2022/05/18 11:57:11;;;;;;;3.50;1.88;;;29.70;57.10;;;;;;5052789;28;20055;-62
2022/05/18 12:00:07;;;;;;;2.58;1.45;;;29.60;56.80;;;;;;5034888;28;20075;-61
2022/05/18 12:03:04;;;;;;;3.05;1.67;;;29.70;57.20;;;;;;5052784;28;20455;-61
2022/05/18 12:05:52;;;;;;;3.50;2.38;;;30.00;57.20;;;;;;5052630;28;20033;-61
2022/05/18 12:08:39;;;;;;;3.80;2.15;;;30.20;56.80;;;;;;5051432;28;20374;-61
2022/05/18 12:11:23;;;;;;;2.78;1.85;;;30.50;56.60;;;;;;5052492;28;20031;-61
2022/05/18 12:13:57;;;;;;;3.10;1.88;;;30.60;56.60;;;;;;5052635;28;20021;-61
2022/05/18 12:16:39;;;;;;;3.75;2.35;;;30.80;56.50;;;;;;5051221;28;20464;-61
2022/05/18 12:19:13;;;;;;;3.95;2.53;;;31.10;55.70;;;;;;5052416;28;20025;-61
2022/05/18 12:21:50;;;;;;;6.18;3.15;;;31.30;54.90;;;;;;5052460;28;20028;-62
2022/05/18 12:24:17;;;;;;;5.03;2.63;;;31.60;54.20;;;;;;5052524;28;20389;-62
2022/05/18 12:26:44;;;;;;;5.18;2.90;;;31.60;53.90;;;;;;5052311;28;19909;-62
2022/05/18 12:29:14;;;;;;;2.80;1.98;;;31.80;53.70;;;;;;5052388;28;20055;-62
2022/05/18 12:31:42;;;;;;;3.85;2.35;;;31.80;53.50;;;;;;5052256;28;20401;-61
2022/05/18 12:34:39;;;;;;;4.35;2.15;;;31.70;53.10;;;;;;5052165;28;20388;-61
2022/05/18 12:37:33;;;;;;;4.13;1.67;;;31.80;53.40;;;;;;5052161;28;20497;-62
2022/05/18 12:40:19;;;;;;;5.25;2.45;;;31.80;53.70;;;;;;5052298;28;20032;-61
2022/05/18 12:42:55;;;;;;;4.32;2.50;;;32.00;53.00;;;;;;5052311;28;20180;-61
2022/05/18 12:45:26;;;;;;;3.97;2.00;;;32.10;52.50;;;;;;5052411;28;20065;-61
2022/05/18 12:48:13;;;;;;;3.78;1.63;;;32.30;52.20;;;;;;5050895;28;20017;-61
2022/05/18 12:50:47;;;;;;;2.95;1.88;;;32.40;52.10;;;;;;5051981;28;20060;-61
2022/05/18 12:53:24;;;;;;;3.20;1.50;;;32.40;52.20;;;;;;5052309;28;20024;-61
2022/05/18 12:56:05;;;;;;;2.70;1.48;;;32.50;52.20;;;;;;5052063;28;20087;-61
2022/05/18 12:58:35;;;;;;;2.28;1.42;;;32.50;52.00;;;;;;5052080;28;20079;-61
2022/05/18 13:01:11;;;;;;;3.72;2.00;;;32.40;51.90;;;;;;5052093;28;20055;-61
2022/05/18 13:03:48;;;;;;;3.80;1.90;;;32.50;51.40;;;;;;5052090;28;20028;-62
2022/05/18 13:06:29;;;;;;;3.20;1.90;;;32.50;51.30;;;;;;5050948;28;20111;-61
2022/05/18 13:09:04;;;;;;;4.03;1.80;;;32.60;50.80;;;;;;5051524;28;20399;-62
2022/05/18 13:11:42;;;;;;;3.03;2.38;;;32.50;50.60;;;;;;5051092;28;20488;-62
2022/05/18 13:14:24;;;;;;;4.40;2.00;;;32.50;50.40;;;;;;5051864;28;20025;-61
2022/05/18 13:16:50;;;;;;;3.65;2.33;;;32.50;50.50;;;;;;5054294;28;20045;-61
2022/05/18 13:19:19;;;;;;;4.05;2.17;;;32.50;50.40;;;;;;5056071;28;20032;-61
2022/05/18 13:21:52;;;;;;;4.20;2.60;;;32.40;50.30;;;;;;5055658;28;20456;-61
2022/05/18 13:24:27;;;;;;;5.38;3.40;;;32.30;51.00;;;;;;5055925;28;20036;-62